Overseas Houston — WWAA — position and weather

sailwx.info

Track history (hours):
 
Tides and Currents Weather Stations Pressure Air Temp Water Temp Dewpoint Dewpoint Depression Visibility Wind Speed Wind Dir Waves Ship Positions

Overseas Houston

Owner: ASC Leasing I, Inc., Kennett Square, PA. More information available from US FCC via Universal Licensing System and Coast Guard Vessel Documentation Center.

Last reported at 2016-Jul-23 20:05 UTC. Time now 2016-Jul-23 21:18 UTC.
Position N 38°55' W 075°07'.

Type: Tanker. MMSI: 367109000.

Date/timePositionNaut miles runAvg speedWind from/ knotsBaromVisibWave heightAir tempDewpointWater temp
2016-Jul-23 20:05N 38°55' W 075°07'0 0.0
2016-Jul-23 19:29N 38°55' W 075°07'0 0.1
2016-Jul-23 18:32N 38°55' W 075°07'0 0.1
2016-Jul-23 17:23N 38°55' W 075°08'0 0.1
2016-Jul-23 16:17N 38°55' W 075°08'0 0.0
2016-Jul-23 13:16N 38°55' W 075°08'0 0.0
2016-Jul-23 12:28N 38°55' W 075°08'0 0.2
2016-Jul-23 11:32N 38°55' W 075°08'0 0.1
2016-Jul-23 10:31N 38°55' W 075°07'0 0.0
2016-Jul-23 09:31N 38°55' W 075°07'0 0.0
2016-Jul-23 08:31N 38°55' W 075°07'0 0.0
2016-Jul-23 07:31N 38°55' W 075°07'0 0.1
2016-Jul-23 06:31N 38°55' W 075°07'0 0.1
2016-Jul-23 04:31N 38°55' W 075°07'0 0.1
2016-Jul-23 03:28N 38°55' W 075°08'0 0.0
2016-Jul-23 02:25N 38°55' W 075°08'0 0.0
2016-Jul-23 01:16N 38°55' W 075°08'0 0.0
2016-Jul-23 00:22N 38°55' W 075°08'0 0.0
2016-Jul-22 23:28N 38°55' W 075°08'0 0.2
2016-Jul-22 22:25N 38°55' W 075°07'0 0.1
2016-Jul-22 21:28N 38°55' W 075°07'0 0.0
2016-Jul-22 20:23N 38°55' W 075°07'0 0.0
2016-Jul-22 19:31N 38°55' W 075°07'0 0.1
2016-Jul-22 18:28N 38°55' W 075°07'0 0.0
2016-Jul-22 17:23N 38°55' W 075°07'0 0.1
2016-Jul-22 16:10N 38°55' W 075°08'0 0.0
2016-Jul-22 15:16N 38°55' W 075°08'0 0.0
2016-Jul-22 14:33N 38°55' W 075°08'0 0.0
2016-Jul-22 13:33N 38°55' W 075°08'0 0.0
2016-Jul-22 12:33N 38°55' W 075°08'0 0.0
2016-Jul-22 11:33N 38°55' W 075°08'1 1.4
2016-Jul-22 10:34N 38°56' W 075°06'1313.4
2016-Jul-22 09:33N 39°08' W 075°14'1514.7
2016-Jul-22 08:34N 39°20' W 075°25'1312.9
2016-Jul-22 07:34N 39°32' W 075°33'4 1.3
2016-Jul-22 04:32N 39°35' W 075°35'0 0.0
2016-Jul-22 03:32N 39°35' W 075°35'0 0.0
2016-Jul-22 02:32N 39°35' W 075°35'0 0.0
2016-Jul-22 01:31N 39°35' W 075°35'0 0.0
2016-Jul-22 00:31N 39°35' W 075°35'0 0.0
2016-Jul-21 23:32N 39°35' W 075°35'0 0.0
2016-Jul-21 22:32N 39°35' W 075°35'0 0.0
2016-Jul-21 21:32N 39°35' W 075°35'0 0.0
2016-Jul-21 20:32N 39°35' W 075°35'0 0.0
2016-Jul-21 19:32N 39°35' W 075°35'0 0.0
2016-Jul-21 18:32N 39°35' W 075°35'0 0.0
2016-Jul-21 17:32N 39°35' W 075°35'0 0.0
2016-Jul-21 16:32N 39°35' W 075°35'0 0.0
2016-Jul-21 15:32N 39°35' W 075°35'0 0.0
2016-Jul-21 14:32N 39°35' W 075°35'0 0.0
2016-Jul-21 13:32N 39°35' W 075°35'0 0.0
2016-Jul-21 12:33N 39°35' W 075°35'0 0.0
2016-Jul-21 11:33N 39°35' W 075°35'0 0.0
2016-Jul-21 10:33N 39°35' W 075°35'0 0.0
2016-Jul-21 09:32N 39°35' W 075°35'0 0.0
2016-Jul-21 08:32N 39°35' W 075°35'0 0.0
2016-Jul-21 07:31N 39°35' W 075°35'0 0.0
2016-Jul-21 06:31N 39°35' W 075°35'0 0.0
2016-Jul-21 05:31N 39°35' W 075°35'0 0.0
2016-Jul-21 04:28N 39°35' W 075°35'0 0.0
2016-Jul-21 03:31N 39°35' W 075°35'0 0.0
2016-Jul-21 02:32N 39°35' W 075°35'0 0.0
2016-Jul-21 01:31N 39°35' W 075°35'0 0.0
2016-Jul-21 00:28N 39°35' W 075°35'0 0.0
2016-Jul-20 23:31N 39°35' W 075°35'0 0.0
2016-Jul-20 22:31N 39°35' W 075°35'0 0.0
2016-Jul-20 21:31N 39°35' W 075°35'0 0.0
2016-Jul-20 20:31N 39°35' W 075°35'0 0.0
2016-Jul-20 19:31N 39°35' W 075°35'0 0.0
2016-Jul-20 18:31N 39°35' W 075°35'2 2.4
2016-Jul-20 17:34N 39°34' W 075°33'5 5.1
2016-Jul-20 16:33N 39°39' W 075°33'9 9.4
2016-Jul-20 15:34N 39°47' W 075°27'2 1.7
2016-Jul-20 14:26N 39°48' W 075°25'0 0.2
2016-Jul-20 13:26N 39°48' W 075°25'0 0.0
2016-Jul-20 12:32N 39°48' W 075°25'0 0.0
2016-Jul-20 11:32N 39°48' W 075°25'0 0.0
2016-Jul-20 10:32N 39°48' W 075°25'0 0.0
2016-Jul-20 09:32N 39°48' W 075°25'0 0.1
2016-Jul-20 08:32N 39°48' W 075°25'0 0.1
2016-Jul-20 07:32N 39°48' W 075°25'0 0.2
2016-Jul-20 06:33N 39°48' W 075°25'0 0.1
2016-Jul-20 05:31N 39°48' W 075°25'0 0.0
2016-Jul-20 04:32N 39°48' W 075°25'0 0.0
2016-Jul-20 03:32N 39°48' W 075°25'0 0.0
2016-Jul-20 02:32N 39°48' W 075°25'0 0.0
2016-Jul-20 01:32N 39°48' W 075°25'0 0.2
2016-Jul-20 00:32N 39°48' W 075°25'0 0.0
2016-Jul-19 23:32N 39°48' W 075°25'0 0.0
2016-Jul-19 22:32N 39°48' W 075°25'0 0.0
2016-Jul-19 21:29N 39°48' W 075°25'0 0.0
2016-Jul-19 20:32N 39°48' W 075°25'0 0.0
2016-Jul-19 19:32N 39°48' W 075°25'0 0.2
2016-Jul-19 18:32N 39°48' W 075°25'0 0.1
2016-Jul-19 17:32N 39°48' W 075°25'0 0.0
2016-Jul-19 16:32N 39°48' W 075°25'0 0.0
2016-Jul-19 15:31N 39°48' W 075°25'0 0.0
2016-Jul-19 14:31N 39°48' W 075°25'0 0.0
2016-Jul-19 13:32N 39°48' W 075°25'0 0.2
2016-Jul-19 12:33N 39°48' W 075°25'0 0.0
2016-Jul-19 11:25N 39°48' W 075°25'0 0.0
2016-Jul-19 10:31N 39°48' W 075°25'0 0.0
2016-Jul-19 09:31N 39°48' W 075°25'0 0.0
2016-Jul-19 08:31N 39°48' W 075°25'0 0.0
2016-Jul-19 07:31N 39°48' W 075°25'0 0.1
2016-Jul-19 04:31N 39°48' W 075°25'0 0.0
2016-Jul-19 03:31N 39°48' W 075°25'0 0.0
2016-Jul-19 02:33N 39°48' W 075°25'0 0.0
2016-Jul-19 01:33N 39°48' W 075°25'0 0.2
2016-Jul-19 00:33N 39°48' W 075°25'2 2.1
2016-Jul-18 23:33N 39°47' W 075°28'1211.5
2016-Jul-18 22:33N 39°37' W 075°35'1110.6
2016-Jul-18 21:33N 39°26' W 075°32'1111.0
2016-Jul-18 20:33N 39°18' W 075°23'1211.8
2016-Jul-18 19:34N 39°08' W 075°14'1212.3
2016-Jul-18 18:33N 38°57' W 075°07'3410.6
2016-Jul-18 15:21N 38°29' W 074°42'1113.0
2016-Jul-18 14:31N 38°19' W 074°40'1414.0
2016-Jul-18 13:32N 38°05' W 074°40'1414.1
2016-Jul-18 12:33N 37°51' W 074°40'2013.7
2016-Jul-18 11:05N 37°31' W 074°40'70514.8
2016-Jul-16 11:33N 26°35' W 079°47'1818.0
2016-Jul-16 10:33N 26°18' W 079°49'1818.1
2016-Jul-16 09:33N 25°60' W 079°52'  
Track history (hours):
 
Tides and Currents Weather Stations Pressure Air Temp Water Temp Dewpoint Dewpoint Depression Visibility Wind Speed Wind Dir Waves Ship Positions

Overseas Houston

Owner: ASC Leasing I, Inc., Kennett Square, PA. More information available from US FCC via Universal Licensing System and Coast Guard Vessel Documentation Center.

Last reported at 2016-Jul-23 20:05 UTC. Time now 2016-Jul-23 21:18 UTC.
Position N 38°55' W 075°07'.

Type: Tanker. MMSI: 367109000.

Date/timePositionNaut miles runAvg speedWind from/ knotsBaromVisibWave heightAir tempDewpointWater temp
2016-Jul-23 20:05N 38°55' W 075°07'0 0.0
2016-Jul-23 19:29N 38°55' W 075°07'0 0.1
2016-Jul-23 18:32N 38°55' W 075°07'0 0.1
2016-Jul-23 17:23N 38°55' W 075°08'0 0.1
2016-Jul-23 16:17N 38°55' W 075°08'0 0.0
2016-Jul-23 13:16N 38°55' W 075°08'0 0.0
2016-Jul-23 12:28N 38°55' W 075°08'0 0.2
2016-Jul-23 11:32N 38°55' W 075°08'0 0.1
2016-Jul-23 10:31N 38°55' W 075°07'0 0.0
2016-Jul-23 09:31N 38°55' W 075°07'0 0.0
2016-Jul-23 08:31N 38°55' W 075°07'0 0.0
2016-Jul-23 07:31N 38°55' W 075°07'0 0.1
2016-Jul-23 06:31N 38°55' W 075°07'0 0.1
2016-Jul-23 04:31N 38°55' W 075°07'0 0.1
2016-Jul-23 03:28N 38°55' W 075°08'0 0.0
2016-Jul-23 02:25N 38°55' W 075°08'0 0.0
2016-Jul-23 01:16N 38°55' W 075°08'0 0.0
2016-Jul-23 00:22N 38°55' W 075°08'0 0.0
2016-Jul-22 23:28N 38°55' W 075°08'0 0.2
2016-Jul-22 22:25N 38°55' W 075°07'0 0.1
2016-Jul-22 21:28N 38°55' W 075°07'0 0.0
2016-Jul-22 20:23N 38°55' W 075°07'0 0.0
2016-Jul-22 19:31N 38°55' W 075°07'0 0.1
2016-Jul-22 18:28N 38°55' W 075°07'0 0.0
2016-Jul-22 17:23N 38°55' W 075°07'0 0.1
2016-Jul-22 16:10N 38°55' W 075°08'0 0.0
2016-Jul-22 15:16N 38°55' W 075°08'0 0.0
2016-Jul-22 14:33N 38°55' W 075°08'0 0.0
2016-Jul-22 13:33N 38°55' W 075°08'0 0.0
2016-Jul-22 12:33N 38°55' W 075°08'0 0.0
2016-Jul-22 11:33N 38°55' W 075°08'1 1.4
2016-Jul-22 10:34N 38°56' W 075°06'1313.4
2016-Jul-22 09:33N 39°08' W 075°14'1514.7
2016-Jul-22 08:34N 39°20' W 075°25'1312.9
2016-Jul-22 07:34N 39°32' W 075°33'4 1.3
2016-Jul-22 04:32N 39°35' W 075°35'0 0.0
2016-Jul-22 03:32N 39°35' W 075°35'0 0.0
2016-Jul-22 02:32N 39°35' W 075°35'0 0.0
2016-Jul-22 01:31N 39°35' W 075°35'0 0.0
2016-Jul-22 00:31N 39°35' W 075°35'0 0.0
2016-Jul-21 23:32N 39°35' W 075°35'0 0.0
2016-Jul-21 22:32N 39°35' W 075°35'0 0.0
2016-Jul-21 21:32N 39°35' W 075°35'0 0.0
2016-Jul-21 20:32N 39°35' W 075°35'0 0.0
2016-Jul-21 19:32N 39°35' W 075°35'0 0.0
2016-Jul-21 18:32N 39°35' W 075°35'0 0.0
2016-Jul-21 17:32N 39°35' W 075°35'0 0.0
2016-Jul-21 16:32N 39°35' W 075°35'0 0.0
2016-Jul-21 15:32N 39°35' W 075°35'0 0.0
2016-Jul-21 14:32N 39°35' W 075°35'0 0.0
2016-Jul-21 13:32N 39°35' W 075°35'0 0.0
2016-Jul-21 12:33N 39°35' W 075°35'0 0.0
2016-Jul-21 11:33N 39°35' W 075°35'0 0.0
2016-Jul-21 10:33N 39°35' W 075°35'0 0.0
2016-Jul-21 09:32N 39°35' W 075°35'0 0.0
2016-Jul-21 08:32N 39°35' W 075°35'0 0.0
2016-Jul-21 07:31N 39°35' W 075°35'0 0.0
2016-Jul-21 06:31N 39°35' W 075°35'0 0.0
2016-Jul-21 05:31N 39°35' W 075°35'0 0.0
2016-Jul-21 04:28N 39°35' W 075°35'0 0.0
2016-Jul-21 03:31N 39°35' W 075°35'0 0.0
2016-Jul-21 02:32N 39°35' W 075°35'0 0.0
2016-Jul-21 01:31N 39°35' W 075°35'0 0.0
2016-Jul-21 00:28N 39°35' W 075°35'0 0.0
2016-Jul-20 23:31N 39°35' W 075°35'0 0.0
2016-Jul-20 22:31N 39°35' W 075°35'0 0.0
2016-Jul-20 21:31N 39°35' W 075°35'0 0.0
2016-Jul-20 20:31N 39°35' W 075°35'0 0.0
2016-Jul-20 19:31N 39°35' W 075°35'0 0.0
2016-Jul-20 18:31N 39°35' W 075°35'2 2.4
2016-Jul-20 17:34N 39°34' W 075°33'5 5.1
2016-Jul-20 16:33N 39°39' W 075°33'9 9.4
2016-Jul-20 15:34N 39°47' W 075°27'2 1.7
2016-Jul-20 14:26N 39°48' W 075°25'0 0.2
2016-Jul-20 13:26N 39°48' W 075°25'0 0.0
2016-Jul-20 12:32N 39°48' W 075°25'0 0.0
2016-Jul-20 11:32N 39°48' W 075°25'0 0.0
2016-Jul-20 10:32N 39°48' W 075°25'0 0.0
2016-Jul-20 09:32N 39°48' W 075°25'0 0.1
2016-Jul-20 08:32N 39°48' W 075°25'0 0.1
2016-Jul-20 07:32N 39°48' W 075°25'0 0.2
2016-Jul-20 06:33N 39°48' W 075°25'0 0.1
2016-Jul-20 05:31N 39°48' W 075°25'0 0.0
2016-Jul-20 04:32N 39°48' W 075°25'0 0.0
2016-Jul-20 03:32N 39°48' W 075°25'0 0.0
2016-Jul-20 02:32N 39°48' W 075°25'0 0.0
2016-Jul-20 01:32N 39°48' W 075°25'0 0.2
2016-Jul-20 00:32N 39°48' W 075°25'0 0.0
2016-Jul-19 23:32N 39°48' W 075°25'0 0.0
2016-Jul-19 22:32N 39°48' W 075°25'0 0.0
2016-Jul-19 21:29N 39°48' W 075°25'0 0.0
2016-Jul-19 20:32N 39°48' W 075°25'0 0.0
2016-Jul-19 19:32N 39°48' W 075°25'0 0.2
2016-Jul-19 18:32N 39°48' W 075°25'0 0.1
2016-Jul-19 17:32N 39°48' W 075°25'0 0.0
2016-Jul-19 16:32N 39°48' W 075°25'0 0.0
2016-Jul-19 15:31N 39°48' W 075°25'0 0.0
2016-Jul-19 14:31N 39°48' W 075°25'0 0.0
2016-Jul-19 13:32N 39°48' W 075°25'0 0.2
2016-Jul-19 12:33N 39°48' W 075°25'0 0.0
2016-Jul-19 11:25N 39°48' W 075°25'0 0.0
2016-Jul-19 10:31N 39°48' W 075°25'0 0.0
2016-Jul-19 09:31N 39°48' W 075°25'0 0.0
2016-Jul-19 08:31N 39°48' W 075°25'0 0.0
2016-Jul-19 07:31N 39°48' W 075°25'0 0.1
2016-Jul-19 04:31N 39°48' W 075°25'0 0.0
2016-Jul-19 03:31N 39°48' W 075°25'0 0.0
2016-Jul-19 02:33N 39°48' W 075°25'0 0.0
2016-Jul-19 01:33N 39°48' W 075°25'0 0.2
2016-Jul-19 00:33N 39°48' W 075°25'2 2.1
2016-Jul-18 23:33N 39°47' W 075°28'1211.5
2016-Jul-18 22:33N 39°37' W 075°35'1110.6
2016-Jul-18 21:33N 39°26' W 075°32'1111.0
2016-Jul-18 20:33N 39°18' W 075°23'1211.8
2016-Jul-18 19:34N 39°08' W 075°14'1212.3
2016-Jul-18 18:33N 38°57' W 075°07'3410.6
2016-Jul-18 15:21N 38°29' W 074°42'1113.0
2016-Jul-18 14:31N 38°19' W 074°40'1414.0
2016-Jul-18 13:32N 38°05' W 074°40'1414.1
2016-Jul-18 12:33N 37°51' W 074°40'2013.7
2016-Jul-18 11:05N 37°31' W 074°40'70514.8
2016-Jul-16 11:33N 26°35' W 079°47'1818.0
2016-Jul-16 10:33N 26°18' W 079°49'1818.1
2016-Jul-16 09:33N 25°60' W 079°52'  

Dump ship's entire track history